createdAt,value
2023-04-11T00:00:22.182Z,57.50
2023-04-11T00:02:48.900Z,57.61
2023-04-11T00:05:15.973Z,57.75
2023-04-11T00:07:42.601Z,57.61
2023-04-11T00:10:09.600Z,57.83
2023-04-11T00:12:36.178Z,57.86
2023-04-11T00:15:03.723Z,57.80
2023-04-11T00:17:31.817Z,57.90
2023-04-11T00:20:01.811Z,57.93
2023-04-11T00:22:28.363Z,58.08
2023-04-11T00:24:55.125Z,58.20
2023-04-11T00:27:22.120Z,58.19
2023-04-11T00:29:48.725Z,58.15
2023-04-11T00:32:15.470Z,58.26
2023-04-11T00:34:42.343Z,58.32
2023-04-11T00:37:08.845Z,58.23
2023-04-11T00:39:35.387Z,58.37
2023-04-11T00:42:07.684Z,58.58
2023-04-11T00:44:36.272Z,58.60
2023-04-11T00:47:06.568Z,58.52
2023-04-11T00:49:33.733Z,58.71
2023-04-11T00:52:00.789Z,58.75
2023-04-11T00:54:30.108Z,58.83
2023-04-11T00:56:59.696Z,58.75
2023-04-11T00:59:28.089Z,58.85
2023-04-11T01:01:55.631Z,59.07
2023-04-11T01:04:22.843Z,59.11
2023-04-11T01:06:53.003Z,59.11
2023-04-11T01:09:21.457Z,59.20
2023-04-11T01:11:49.788Z,59.37
2023-04-11T01:14:18.485Z,59.27
2023-04-11T01:16:50.747Z,59.43
2023-04-11T01:19:23.548Z,59.58
2023-04-11T01:21:52.049Z,59.49
2023-04-11T01:24:19.000Z,59.56
2023-04-11T01:26:45.976Z,59.52
2023-04-11T01:29:14.572Z,59.53
2023-04-11T01:31:41.204Z,59.62
2023-04-11T01:34:07.936Z,59.74
2023-04-11T01:36:34.728Z,59.73
2023-04-11T01:39:01.493Z,59.88
2023-04-11T01:41:30.424Z,59.87
2023-04-11T01:43:59.270Z,59.85
2023-04-11T01:46:26.093Z,59.99
2023-04-11T01:48:55.412Z,59.85
2023-04-11T01:51:22.221Z,60.09
2023-04-11T01:53:48.754Z,60.04
2023-04-11T01:56:15.539Z,60.19
2023-04-11T01:58:42.170Z,60.35
2023-04-11T02:01:09.188Z,60.27
2023-04-11T02:03:37.017Z,59.99
2023-04-11T02:06:04.069Z,60.24
2023-04-11T02:08:30.954Z,60.30
2023-04-11T02:10:57.452Z,60.43
2023-04-11T02:13:23.985Z,60.38
2023-04-11T02:19:03.737Z,60.41
2023-04-11T02:21:30.330Z,60.68
2023-04-11T02:23:58.428Z,60.56
2023-04-11T02:26:26.796Z,60.60
2023-04-11T02:28:55.965Z,60.71
2023-04-11T02:31:22.885Z,60.62
2023-04-11T02:33:49.455Z,60.66
2023-04-11T02:36:18.671Z,60.84
2023-04-11T02:38:45.360Z,60.91
2023-04-11T02:41:11.921Z,60.87
2023-04-11T02:43:38.749Z,60.89
2023-04-11T02:46:12.525Z,61.00
2023-04-11T02:48:42.007Z,61.14
2023-04-11T02:51:09.237Z,61.04
2023-04-11T02:53:35.834Z,61.14
2023-04-11T02:56:02.473Z,61.16
2023-04-11T02:58:29.190Z,61.21
2023-04-11T03:00:57.161Z,61.20
2023-04-11T03:03:23.936Z,61.19
2023-04-11T03:05:50.739Z,61.33
2023-04-11T03:08:22.041Z,61.43
2023-04-11T03:10:51.282Z,61.35
2023-04-11T03:13:18.671Z,61.27
2023-04-11T03:15:45.301Z,61.41
2023-04-11T03:18:12.394Z,61.35
2023-04-11T03:20:41.440Z,61.51
2023-04-11T03:23:08.691Z,61.50
2023-04-11T03:25:37.773Z,61.64
2023-04-11T03:28:05.518Z,61.66
2023-04-11T03:30:33.386Z,61.86
2023-04-11T03:33:00.935Z,61.84
2023-04-11T03:35:28.068Z,61.89
2023-04-11T03:37:54.661Z,61.68
2023-04-11T03:40:21.397Z,61.83
2023-04-11T03:42:52.067Z,61.98
2023-04-11T03:45:21.485Z,61.94
2023-04-11T03:47:48.465Z,61.91
2023-04-11T03:50:15.596Z,62.00
2023-04-11T03:52:44.624Z,62.06
2023-04-11T03:55:13.197Z,62.10
2023-04-11T03:57:39.787Z,62.15
2023-04-11T04:00:07.648Z,62.14
2023-04-11T04:02:42.179Z,62.08
2023-04-11T04:05:11.115Z,62.18
2023-04-11T04:07:39.544Z,62.15
2023-04-11T04:10:14.470Z,62.30
2023-04-11T04:12:41.729Z,62.29
2023-04-11T04:15:14.602Z,62.28
2023-04-11T04:17:42.193Z,62.22
2023-04-11T04:20:12.374Z,62.41
2023-04-11T04:22:39.707Z,62.43
2023-04-11T04:25:06.994Z,62.56
2023-04-11T04:27:34.966Z,62.55
2023-04-11T04:30:04.474Z,62.56
2023-04-11T04:33:12.430Z,62.59
2023-04-11T04:35:42.211Z,62.64
2023-04-11T04:38:08.980Z,62.66
2023-04-11T04:40:50.422Z,62.71
2023-04-11T04:43:22.599Z,62.75
2023-04-11T04:46:15.501Z,62.83
2023-04-11T04:48:48.777Z,62.96
2023-04-11T04:51:15.448Z,62.99
2023-04-11T04:53:42.167Z,62.95
2023-04-11T04:56:09.811Z,63.03
2023-04-11T04:58:41.225Z,63.09
2023-04-11T05:01:11.447Z,62.97
2023-04-11T05:03:39.019Z,63.13
2023-04-11T05:06:09.668Z,63.10
2023-04-11T05:08:36.715Z,63.18
2023-04-11T05:11:05.435Z,63.21
2023-04-11T05:13:34.320Z,63.24
2023-04-11T05:16:02.411Z,63.31
2023-04-11T05:18:30.615Z,63.38
2023-04-11T05:21:04.873Z,63.29
2023-04-11T05:23:38.186Z,63.40
2023-04-11T05:26:08.974Z,63.41
2023-04-11T05:28:36.171Z,63.42
2023-04-11T05:31:07.049Z,63.35
2023-04-11T05:33:34.269Z,63.38
2023-04-11T05:36:01.272Z,63.45
2023-04-11T05:38:27.899Z,63.34
2023-04-11T05:40:54.431Z,63.44
2023-04-11T05:43:21.314Z,63.57
2023-04-11T05:45:48.190Z,63.57
2023-04-11T05:48:19.584Z,63.48
2023-04-11T05:50:47.623Z,63.49
2023-04-11T05:53:14.184Z,63.49
2023-04-11T05:55:40.902Z,63.35
2023-04-11T05:58:09.299Z,63.23
2023-04-11T06:00:38.420Z,63.26
2023-04-11T06:03:07.974Z,63.25
2023-04-11T06:05:35.362Z,63.30
2023-04-11T06:08:04.271Z,63.27
2023-04-11T06:10:31.258Z,63.28
2023-04-11T06:12:58.225Z,63.43
2023-04-11T06:15:29.097Z,63.52
2023-04-11T06:17:56.066Z,63.22
2023-04-11T06:20:25.193Z,62.96
2023-04-11T06:22:52.138Z,62.81
2023-04-11T06:25:20.394Z,62.94
2023-04-11T06:27:48.060Z,62.55
2023-04-11T06:30:15.464Z,62.43
2023-04-11T06:32:42.367Z,61.61
2023-04-11T06:35:10.041Z,61.29
2023-04-11T06:37:36.823Z,60.87
2023-04-11T06:40:05.765Z,60.65
2023-04-11T06:42:32.627Z,60.29
2023-04-11T06:44:59.258Z,60.67
2023-04-11T06:47:26.020Z,59.86
2023-04-11T06:49:52.568Z,59.30
2023-04-11T06:52:19.135Z,58.54
2023-04-11T06:54:47.829Z,57.99
2023-04-11T06:57:14.482Z,58.18
2023-04-11T06:59:41.276Z,58.48
2023-04-11T07:02:08.239Z,57.90
2023-04-11T07:04:35.063Z,57.43
2023-04-11T07:07:01.891Z,57.04
2023-04-11T07:09:28.568Z,56.43
2023-04-11T07:11:55.157Z,56.94
2023-04-11T07:14:21.727Z,57.36
2023-04-11T07:16:48.276Z,57.45
2023-04-11T07:19:14.941Z,57.09
2023-04-11T07:21:42.024Z,55.56
2023-04-11T07:24:10.574Z,54.18
2023-04-11T07:26:38.589Z,54.46
2023-04-11T07:29:05.765Z,55.24
2023-04-11T07:31:33.232Z,54.63
2023-04-11T07:33:59.832Z,53.99
2023-04-11T07:36:26.744Z,54.70
2023-04-11T07:38:53.410Z,55.60
2023-04-11T07:41:20.069Z,55.24
2023-04-11T07:43:47.269Z,54.58
2023-04-11T07:46:15.118Z,53.11
2023-04-11T07:48:42.621Z,53.06
2023-04-11T07:51:09.480Z,53.82
2023-04-11T07:53:36.356Z,52.91
2023-04-11T07:56:03.181Z,51.02
2023-04-11T07:58:30.234Z,50.10
2023-04-11T08:00:56.885Z,50.53
2023-04-11T08:03:24.038Z,51.82
2023-04-11T08:05:52.247Z,51.69
2023-04-11T08:08:19.017Z,50.98
2023-04-11T08:10:45.794Z,50.56
2023-04-11T08:13:12.439Z,49.78
2023-04-11T08:15:39.261Z,50.48
2023-04-11T08:18:05.952Z,50.75
2023-04-11T08:20:32.737Z,51.66
2023-04-11T08:23:00.678Z,52.65
2023-04-11T08:25:27.562Z,52.36
2023-04-11T08:27:54.497Z,51.84
2023-04-11T08:30:21.661Z,52.17
2023-04-11T08:32:48.384Z,51.06
2023-04-11T08:35:15.364Z,51.03
2023-04-11T08:37:44.370Z,50.75
2023-04-11T08:40:11.652Z,49.17
2023-04-11T08:42:38.350Z,49.12
2023-04-11T08:45:08.794Z,49.35
2023-04-11T08:47:37.135Z,49.71
2023-04-11T08:50:06.592Z,49.65
2023-04-11T08:52:34.180Z,49.86
2023-04-11T08:55:02.124Z,50.11
2023-04-11T08:57:35.141Z,49.04
2023-04-11T09:00:19.285Z,48.47
2023-04-11T09:03:02.841Z,48.37
2023-04-11T09:05:35.034Z,49.15
2023-04-11T09:08:08.299Z,49.03
2023-04-11T09:10:36.345Z,49.25
2023-04-11T09:13:18.322Z,48.94
2023-04-11T09:15:45.217Z,49.06
2023-04-11T09:18:31.919Z,48.71
2023-04-11T09:21:04.416Z,49.48
2023-04-11T09:23:31.203Z,48.63
2023-04-11T09:25:58.443Z,47.91
2023-04-11T09:28:25.951Z,48.66
2023-04-11T09:30:54.494Z,48.44
2023-04-11T09:33:28.355Z,47.07
2023-04-11T09:35:56.770Z,47.36
2023-04-11T09:38:32.156Z,47.13
2023-04-11T09:41:00.662Z,46.95
2023-04-11T09:43:53.091Z,46.50
2023-04-11T09:46:21.421Z,46.39
2023-04-11T09:48:49.536Z,45.67
2023-04-11T09:51:31.889Z,46.17
2023-04-11T09:54:02.082Z,45.31
2023-04-11T09:56:30.581Z,45.14
2023-04-11T09:58:59.905Z,44.50
2023-04-11T10:01:27.412Z,44.52
2023-04-11T10:03:56.679Z,46.34
2023-04-11T10:06:41.362Z,45.90
2023-04-11T10:09:11.102Z,45.63
2023-04-11T10:11:42.361Z,44.16
2023-04-11T10:14:09.453Z,44.66
2023-04-11T10:16:37.445Z,45.12
2023-04-11T10:19:04.665Z,44.18
2023-04-11T10:21:36.541Z,43.60
2023-04-11T10:24:15.888Z,43.97
2023-04-11T10:26:51.704Z,44.24
2023-04-11T10:29:34.528Z,44.25
2023-04-11T10:32:17.334Z,43.24
2023-04-11T10:34:49.921Z,43.31
2023-04-11T10:37:34.704Z,43.81
2023-04-11T10:40:11.660Z,43.38
2023-04-11T10:42:41.030Z,43.10
2023-04-11T10:45:27.900Z,42.95
2023-04-11T10:48:05.930Z,43.66
2023-04-11T10:50:37.765Z,43.73
2023-04-11T10:53:09.433Z,43.98
2023-04-11T10:55:44.611Z,44.60
2023-04-11T10:58:22.436Z,45.02
2023-04-11T11:00:52.737Z,45.78
2023-04-11T11:03:19.682Z,46.05
2023-04-11T11:05:47.696Z,46.00
2023-04-11T11:08:14.500Z,44.81
2023-04-11T11:10:44.776Z,44.10
2023-04-11T11:13:22.053Z,44.12
2023-04-11T11:15:50.297Z,44.33
2023-04-11T11:18:18.445Z,44.33
2023-04-11T11:20:45.192Z,44.37
2023-04-11T11:23:14.710Z,44.88
2023-04-11T11:25:53.039Z,46.16
2023-04-11T11:28:19.677Z,45.82
2023-04-11T11:30:54.029Z,45.28
2023-04-11T11:33:26.900Z,44.98
2023-04-11T11:36:06.792Z,44.81
2023-04-11T11:38:33.654Z,44.73
2023-04-11T11:41:01.003Z,45.58
2023-04-11T11:43:35.178Z,46.27
2023-04-11T11:46:16.006Z,45.29
2023-04-11T11:48:57.133Z,44.39
2023-04-11T11:51:24.522Z,44.65
2023-04-11T11:54:08.763Z,45.47
2023-04-11T11:56:39.762Z,45.98
2023-04-11T11:59:07.616Z,46.22
2023-04-11T12:01:35.749Z,45.74
2023-04-11T12:04:04.580Z,45.12
2023-04-11T12:06:32.514Z,45.14
2023-04-11T12:09:09.599Z,45.49
2023-04-11T12:11:41.183Z,44.87
2023-04-11T12:14:08.795Z,44.01
2023-04-11T12:16:40.559Z,43.55
2023-04-11T12:19:08.684Z,43.51
2023-04-11T12:21:35.235Z,44.31
2023-04-11T12:24:01.855Z,44.48
2023-04-11T12:26:28.717Z,44.25
2023-04-11T12:28:55.550Z,43.96
2023-04-11T12:31:25.303Z,44.18
2023-04-11T12:33:52.280Z,43.57
2023-04-11T12:36:18.973Z,43.13
2023-04-11T12:38:45.658Z,43.80
2023-04-11T12:44:04.179Z,44.55
2023-04-11T12:44:22.842Z,44.22
2023-04-11T12:46:30.839Z,44.38
2023-04-11T12:48:58.016Z,44.25
2023-04-11T12:51:24.924Z,44.21
2023-04-11T12:53:52.839Z,44.57
2023-04-11T12:56:19.449Z,44.41
2023-04-11T12:58:46.398Z,44.31
2023-04-11T13:01:12.998Z,44.07
2023-04-11T13:03:39.711Z,44.04
2023-04-11T13:06:07.057Z,44.52
2023-04-11T13:08:33.638Z,44.31
2023-04-11T13:11:00.486Z,44.06
2023-04-11T13:13:27.125Z,44.19
2023-04-11T13:15:54.991Z,44.28
2023-04-11T13:18:21.911Z,44.68
2023-04-11T13:20:48.788Z,44.68
2023-04-11T13:23:17.204Z,44.98
2023-04-11T13:25:44.099Z,45.13
2023-04-11T13:28:10.685Z,44.98
2023-04-11T13:30:37.339Z,45.20
2023-04-11T13:33:04.186Z,45.00
2023-04-11T13:35:31.013Z,44.93
2023-04-11T13:37:57.806Z,45.07
2023-04-11T13:40:24.427Z,44.87
2023-04-11T13:42:52.202Z,45.13
2023-04-11T13:45:18.865Z,45.33
2023-04-11T13:47:45.760Z,45.69
2023-04-11T13:50:12.493Z,45.19
2023-04-11T13:52:39.738Z,45.11
2023-04-11T13:55:07.116Z,45.15
2023-04-11T13:57:33.692Z,45.02
2023-04-11T14:00:00.313Z,44.76
2023-04-11T14:02:27.066Z,44.70
2023-04-11T14:04:53.780Z,44.97
2023-04-11T14:07:20.457Z,45.38
2023-04-11T14:09:46.989Z,45.51
2023-04-11T14:12:13.613Z,45.71
2023-04-11T14:14:40.339Z,45.62
2023-04-11T14:17:07.068Z,45.61
2023-04-11T14:19:33.941Z,45.10
2023-04-11T14:22:00.713Z,45.30
2023-04-11T14:24:27.572Z,45.21
2023-04-11T14:26:54.260Z,45.17
2023-04-11T14:29:22.397Z,45.34
2023-04-11T14:31:50.213Z,45.60
2023-04-11T14:34:18.602Z,45.70
2023-04-11T14:36:45.614Z,45.65
2023-04-11T14:39:12.648Z,45.75
2023-04-11T14:41:39.513Z,45.77
2023-04-11T14:44:06.529Z,45.66
2023-04-11T14:46:34.954Z,45.63
2023-04-11T14:49:02.159Z,45.44
2023-04-11T14:51:29.849Z,45.69
2023-04-11T14:53:57.220Z,45.62
2023-04-11T14:56:24.940Z,45.86
2023-04-11T14:58:51.788Z,45.79
2023-04-11T15:01:20.128Z,45.74
2023-04-11T15:03:47.136Z,45.86
2023-04-11T15:06:14.049Z,45.67
2023-04-11T15:08:41.335Z,45.78
2023-04-11T15:11:08.343Z,45.92
2023-04-11T15:13:35.140Z,45.93
2023-04-11T15:16:05.716Z,46.06
2023-04-11T15:18:32.934Z,46.23
2023-04-11T15:21:00.658Z,46.24
2023-04-11T15:23:27.302Z,46.44
2023-04-11T15:25:59.481Z,46.57
2023-04-11T15:28:30.393Z,46.55
2023-04-11T15:30:57.411Z,46.42
2023-04-11T15:33:24.192Z,46.52
2023-04-11T15:35:53.834Z,46.64
2023-04-11T15:38:21.074Z,46.65
2023-04-11T15:40:51.893Z,46.83
2023-04-11T15:43:18.664Z,46.58
2023-04-11T15:45:45.288Z,46.53
2023-04-11T15:48:13.477Z,46.86
2023-04-11T15:50:43.964Z,46.74
2023-04-11T15:53:11.569Z,46.75
2023-04-11T15:55:40.776Z,46.79
2023-04-11T15:58:07.617Z,46.78
2023-04-11T16:00:39.326Z,46.97
2023-04-11T16:03:08.589Z,46.95
2023-04-11T16:05:38.327Z,46.85
2023-04-11T16:08:06.978Z,47.06
2023-04-11T16:10:33.918Z,47.09
2023-04-11T16:13:01.775Z,47.01
2023-04-11T16:15:28.414Z,46.89
2023-04-11T16:17:55.023Z,46.96
2023-04-11T16:20:22.911Z,47.00
2023-04-11T16:22:49.678Z,47.32
2023-04-11T16:25:19.448Z,47.07
2023-04-11T16:27:46.762Z,47.12
2023-04-11T16:30:13.937Z,47.14
2023-04-11T16:32:40.912Z,47.20
2023-04-11T16:35:08.369Z,47.46
2023-04-11T16:37:35.660Z,47.30
2023-04-11T16:40:02.722Z,47.37
2023-04-11T16:42:30.058Z,47.64
2023-04-11T16:44:56.655Z,47.44
2023-04-11T16:47:26.298Z,47.44
2023-04-11T16:49:53.606Z,47.73
2023-04-11T16:52:21.584Z,47.59
2023-04-11T16:54:48.356Z,47.78
2023-04-11T16:57:14.937Z,47.59
2023-04-11T16:59:41.912Z,47.78
2023-04-11T17:02:08.643Z,47.84
2023-04-11T17:04:35.566Z,47.92
2023-04-11T17:07:02.309Z,47.98
2023-04-11T17:09:29.569Z,47.86
2023-04-11T17:11:56.625Z,48.01
2023-04-11T17:14:24.550Z,48.25
2023-04-11T17:16:51.639Z,48.16
2023-04-11T17:19:18.287Z,48.24
2023-04-11T17:21:45.084Z,48.28
2023-04-11T17:24:11.654Z,48.55
2023-04-11T17:26:38.682Z,48.47
2023-04-11T17:29:06.525Z,48.42
2023-04-11T17:31:34.048Z,48.60
2023-04-11T17:34:00.720Z,48.62
2023-04-11T17:36:28.433Z,48.60
2023-04-11T17:38:55.121Z,48.62
2023-04-11T17:41:22.062Z,48.74
2023-04-11T17:43:48.572Z,48.84
2023-04-11T17:46:15.557Z,48.78
2023-04-11T17:48:42.431Z,48.91
2023-04-11T17:51:09.068Z,48.93
2023-04-11T17:53:36.066Z,49.13
2023-04-11T17:56:04.776Z,49.06
2023-04-11T17:58:31.886Z,49.21
2023-04-11T18:00:58.696Z,49.38
2023-04-11T18:03:26.243Z,49.40
2023-04-11T18:05:54.556Z,49.53
2023-04-11T18:08:36.188Z,49.45
2023-04-11T18:11:11.321Z,49.47
2023-04-11T18:13:37.967Z,49.63
2023-04-11T18:16:05.203Z,49.70
2023-04-11T18:18:31.952Z,49.65
2023-04-11T18:21:05.065Z,49.68
2023-04-11T18:23:33.879Z,49.75
2023-04-11T18:26:00.582Z,49.82
2023-04-11T18:28:27.243Z,49.91
2023-04-11T18:30:54.852Z,49.87
2023-04-11T18:33:21.723Z,49.96
2023-04-11T18:35:48.424Z,50.02
2023-04-11T18:38:17.337Z,50.13
2023-04-11T18:40:43.944Z,50.02
2023-04-11T18:43:10.706Z,50.10
2023-04-11T18:45:38.992Z,50.19
2023-04-11T18:48:06.461Z,50.22
2023-04-11T18:50:38.939Z,50.27
2023-04-11T18:53:11.875Z,50.36
2023-04-11T18:55:40.901Z,50.50
2023-04-11T18:58:09.519Z,50.46
2023-04-11T19:00:39.033Z,50.50
2023-04-11T19:03:07.172Z,50.61
2023-04-11T19:05:34.471Z,50.72
2023-04-11T19:08:01.626Z,50.70
2023-04-11T19:10:28.481Z,50.77
2023-04-11T19:12:55.427Z,50.81
2023-04-11T19:15:22.651Z,50.83
2023-04-11T19:17:49.623Z,50.89
2023-04-11T19:20:16.745Z,50.87
2023-04-11T19:22:43.579Z,51.00
2023-04-11T19:25:11.650Z,50.94
2023-04-11T19:27:41.306Z,51.14
2023-04-11T19:30:10.335Z,51.16
2023-04-11T19:32:43.438Z,51.16
2023-04-11T19:35:11.812Z,51.31
2023-04-11T19:37:39.748Z,51.36
2023-04-11T19:40:13.602Z,51.29
2023-04-11T19:42:42.158Z,51.40
2023-04-11T19:45:10.513Z,51.40
2023-04-11T19:47:39.164Z,51.44
2023-04-11T19:50:13.557Z,51.56
2023-04-11T19:52:41.580Z,51.65
2023-04-11T19:55:09.452Z,51.65
2023-04-11T19:57:38.753Z,51.75
2023-04-11T20:00:13.790Z,51.76
2023-04-11T20:02:44.996Z,51.86
2023-04-11T20:05:13.786Z,51.92
2023-04-11T20:07:40.524Z,51.86
2023-04-11T20:10:08.291Z,51.90
2023-04-11T20:12:35.032Z,52.02
2023-04-11T20:15:02.438Z,52.16
2023-04-11T20:17:29.859Z,52.18
2023-04-11T20:19:56.838Z,52.16
2023-04-11T20:22:25.863Z,52.22
2023-04-11T20:24:52.777Z,52.30
2023-04-11T20:27:19.663Z,52.39
2023-04-11T20:29:47.339Z,52.45
2023-04-11T20:32:14.281Z,52.53
2023-04-11T20:34:41.463Z,52.59
2023-04-11T20:37:09.104Z,52.58
2023-04-11T20:39:36.568Z,52.64
2023-04-11T20:42:03.584Z,52.77
2023-04-11T20:44:30.511Z,52.89
2023-04-11T20:46:57.182Z,52.90
2023-04-11T20:49:28.284Z,52.93
2023-04-11T20:51:55.236Z,53.03
2023-04-11T20:54:22.593Z,53.13
2023-04-11T20:56:49.420Z,53.18
2023-04-11T20:59:16.250Z,53.17
2023-04-11T21:01:44.100Z,53.18
2023-04-11T21:04:11.646Z,53.25
2023-04-11T21:06:38.605Z,53.33
2023-04-11T21:09:05.979Z,53.43
2023-04-11T21:11:32.860Z,53.43
2023-04-11T21:13:59.634Z,53.58
2023-04-11T21:16:26.620Z,53.62
2023-04-11T21:18:53.289Z,53.68
2023-04-11T21:21:20.765Z,53.79
2023-04-11T21:23:47.643Z,53.87
2023-04-11T21:26:14.445Z,53.93
2023-04-11T21:28:41.202Z,53.90
2023-04-11T21:31:07.902Z,53.86
2023-04-11T21:33:35.047Z,53.93
2023-04-11T21:36:01.873Z,54.03
2023-04-11T21:38:28.936Z,54.12
2023-04-11T21:40:57.983Z,54.23
2023-04-11T21:43:25.150Z,54.24
2023-04-11T21:45:52.767Z,54.29
2023-04-11T21:48:19.847Z,54.29
2023-04-11T21:50:46.677Z,54.30
2023-04-11T21:53:14.183Z,54.33
2023-04-11T21:55:46.297Z,54.42
2023-04-11T21:58:26.313Z,54.58
2023-04-11T22:00:56.069Z,54.67
2023-04-11T22:03:23.654Z,54.66
2023-04-11T22:05:52.395Z,54.75
2023-04-11T22:08:22.250Z,54.73
2023-04-11T22:10:50.732Z,54.82
2023-04-11T22:13:19.925Z,54.88
2023-04-11T22:15:48.913Z,54.91
2023-04-11T22:18:15.868Z,54.97
2023-04-11T22:20:44.069Z,55.08
2023-04-11T22:23:13.525Z,55.11
2023-04-11T22:25:44.210Z,55.13
2023-04-11T22:28:15.645Z,55.20
2023-04-11T22:30:44.078Z,55.18
2023-04-11T22:33:13.735Z,55.18
2023-04-11T22:35:40.833Z,55.26
2023-04-11T22:38:07.513Z,55.32
2023-04-11T22:40:34.934Z,55.48
2023-04-11T22:43:02.843Z,55.48
2023-04-11T22:45:29.360Z,55.52
2023-04-11T22:47:59.975Z,55.57
2023-04-11T22:50:26.739Z,55.61
2023-04-11T22:52:54.805Z,55.62
2023-04-11T22:55:24.802Z,55.74
2023-04-11T22:57:51.543Z,55.71
2023-04-11T23:00:18.951Z,55.26
2023-04-11T23:02:45.625Z,55.37
2023-04-11T23:05:12.182Z,55.74
2023-04-11T23:07:38.824Z,55.92
2023-04-11T23:10:10.526Z,55.97
2023-04-11T23:12:37.130Z,56.21
2023-04-11T23:15:04.284Z,56.36
2023-04-11T23:17:30.826Z,56.34
2023-04-11T23:19:59.687Z,56.38
2023-04-11T23:22:26.599Z,56.49
2023-04-11T23:24:53.862Z,56.66
2023-04-11T23:27:20.980Z,56.69
2023-04-11T23:30:51.900Z,56.79
2023-04-11T23:33:25.771Z,56.88
2023-04-11T23:35:53.200Z,56.88
2023-04-11T23:38:19.823Z,56.99
2023-04-11T23:40:46.344Z,56.94
2023-04-11T23:43:12.880Z,56.97
2023-04-11T23:45:39.434Z,56.94
2023-04-11T23:48:06.920Z,57.01
2023-04-11T23:50:33.528Z,57.03
2023-04-11T23:53:00.517Z,57.09
2023-04-11T23:55:27.116Z,57.16
2023-04-11T23:57:54.148Z,57.14
